createdAt,value
2017-04-04T00:00:42.833Z,15.85
2017-04-04T00:01:41.870Z,15.97
2017-04-04T00:02:40.864Z,15.75
2017-04-04T00:03:39.411Z,15.13
2017-04-04T00:04:38.004Z,16.03
2017-04-04T00:05:37.120Z,16.58
2017-04-04T00:06:36.098Z,16.85
2017-04-04T00:07:35.520Z,16.42
2017-04-04T00:08:34.484Z,16.27
2017-04-04T00:09:33.479Z,16.50
2017-04-04T00:10:32.537Z,16.35
2017-04-04T00:11:31.523Z,17.27
2017-04-04T00:12:30.868Z,16.18
2017-04-04T00:13:29.893Z,15.90
2017-04-04T00:14:28.533Z,16.25
2017-04-04T00:15:27.896Z,17.85
2017-04-04T00:16:26.879Z,17.82
2017-04-04T00:17:26.023Z,16.53
2017-04-04T00:18:24.601Z,17.98
2017-04-04T00:19:23.580Z,17.23
2017-04-04T00:20:22.191Z,17.32
2017-04-04T00:21:21.180Z,15.93
2017-04-04T00:22:20.160Z,16.70
2017-04-04T00:23:19.203Z,17.58
2017-04-04T00:24:17.782Z,18.57
2017-04-04T00:25:16.747Z,18.38
2017-04-04T00:26:15.745Z,16.50
2017-04-04T00:27:14.423Z,17.32
2017-04-04T00:28:13.426Z,17.73
2017-04-04T00:29:12.484Z,17.63
2017-04-04T00:30:11.521Z,17.57
2017-04-04T00:31:10.487Z,17.45
2017-04-04T00:32:09.474Z,17.53
2017-04-04T00:33:08.471Z,18.75
2017-04-04T00:34:07.470Z,18.23
2017-04-04T00:35:06.768Z,18.00
2017-04-04T00:36:05.736Z,19.42
2017-04-04T00:37:04.831Z,18.57
2017-04-04T00:38:03.815Z,18.02
2017-04-04T00:39:02.835Z,19.20
2017-04-04T00:40:01.796Z,18.92
2017-04-04T00:41:00.824Z,19.25
2017-04-04T00:42:00.184Z,19.05
2017-04-04T00:42:59.195Z,19.98
2017-04-04T00:43:58.583Z,18.02
2017-04-04T00:44:57.622Z,18.53
2017-04-04T00:45:56.231Z,20.13
2017-04-04T00:46:55.183Z,19.83
2017-04-04T00:47:54.148Z,18.87
2017-04-04T00:48:53.127Z,21.03
2017-04-04T00:49:52.248Z,20.25
2017-04-04T00:50:51.263Z,21.40
2017-04-04T00:51:50.279Z,21.33
2017-04-04T00:52:49.303Z,20.38
2017-04-04T00:53:48.272Z,19.92
2017-04-04T00:54:47.249Z,19.47
2017-04-04T00:55:46.272Z,20.52
2017-04-04T00:56:45.222Z,21.58
2017-04-04T00:57:44.276Z,20.73
2017-04-04T00:58:43.254Z,20.77
2017-04-04T00:59:42.291Z,19.45
2017-04-04T01:00:41.251Z,19.65
2017-04-04T01:01:40.357Z,22.02
2017-04-04T01:02:39.379Z,18.47
2017-04-04T01:03:38.736Z,20.47
2017-04-04T01:04:37.716Z,20.60
2017-04-04T01:05:36.711Z,21.08
2017-04-04T01:06:35.723Z,18.05
2017-04-04T01:07:35.119Z,21.60
2017-04-04T01:08:34.119Z,19.53
2017-04-04T01:09:33.107Z,19.47
2017-04-04T01:10:32.131Z,21.12
2017-04-04T01:11:31.155Z,19.63
2017-04-04T01:12:29.903Z,19.58
2017-04-04T01:13:28.916Z,21.22
2017-04-04T01:14:28.299Z,20.02
2017-04-04T01:15:27.311Z,18.83
2017-04-04T01:16:26.320Z,20.50
2017-04-04T01:17:25.398Z,21.03
2017-04-04T01:18:24.372Z,19.73
2017-04-04T01:19:22.988Z,20.72
2017-04-04T01:20:21.989Z,21.45
2017-04-04T01:21:20.533Z,20.63
2017-04-04T01:22:19.940Z,21.68
2017-04-04T01:23:18.971Z,21.82
2017-04-04T01:24:17.956Z,21.37
2017-04-04T01:25:16.987Z,20.65
2017-04-04T01:26:15.976Z,20.90
2017-04-04T01:27:14.942Z,20.72
2017-04-04T01:28:14.371Z,19.83
2017-04-04T01:29:12.968Z,21.22
2017-04-04T01:30:12.060Z,20.65
2017-04-04T01:31:11.100Z,22.10
2017-04-04T01:32:10.087Z,21.67
2017-04-04T01:33:09.069Z,22.05
2017-04-04T01:34:08.093Z,21.80
2017-04-04T01:35:06.719Z,20.73
2017-04-04T01:36:05.707Z,21.53
2017-04-04T01:37:04.876Z,21.28
2017-04-04T01:38:03.875Z,21.48
2017-04-04T01:39:02.869Z,23.67
2017-04-04T01:40:01.836Z,21.52
2017-04-04T01:41:00.847Z,23.40
2017-04-04T01:42:00.204Z,24.60
2017-04-04T01:42:58.794Z,24.10
2017-04-04T01:43:57.391Z,23.05
2017-04-04T01:44:56.738Z,23.55
2017-04-04T01:45:55.751Z,21.72
2017-04-04T01:46:54.325Z,23.43
2017-04-04T01:47:53.357Z,23.07
2017-04-04T01:48:52.367Z,23.12
2017-04-04T01:49:50.960Z,23.10
2017-04-04T01:50:49.944Z,24.10
2017-04-04T01:51:48.971Z,23.68
2017-04-04T01:52:47.971Z,25.42
2017-04-04T01:53:47.003Z,22.17
2017-04-04T01:54:46.004Z,24.13
2017-04-04T01:55:45.392Z,22.72
2017-04-04T01:56:44.419Z,24.22
2017-04-04T01:57:43.394Z,24.75
2017-04-04T01:58:42.431Z,24.20
2017-04-04T01:59:41.407Z,23.60
2017-04-04T02:00:40.440Z,23.82
2017-04-04T02:01:39.513Z,22.63
2017-04-04T02:02:38.506Z,23.13
2017-04-04T02:03:37.555Z,24.37
2017-04-04T02:04:36.627Z,24.13
2017-04-04T02:05:35.651Z,23.35
2017-04-04T02:06:34.629Z,25.35
2017-04-04T02:07:33.648Z,26.25
2017-04-04T02:08:32.610Z,26.05
2017-04-04T02:09:31.737Z,26.82
2017-04-04T02:10:30.720Z,25.88
2017-04-04T02:11:29.808Z,25.60
2017-04-04T02:12:28.747Z,27.37
2017-04-04T02:13:27.944Z,24.33
2017-04-04T02:14:26.619Z,26.08
2017-04-04T02:15:25.311Z,27.03
2017-04-04T02:16:24.392Z,27.48
2017-04-04T02:17:23.448Z,27.27
2017-04-04T02:18:22.459Z,26.00
2017-04-04T02:19:21.508Z,25.13
2017-04-04T02:20:20.939Z,26.13
2017-04-04T02:21:19.687Z,25.95
2017-04-04T02:22:19.064Z,29.95
2017-04-04T02:23:18.058Z,29.10
2017-04-04T02:24:17.437Z,27.65
2017-04-04T02:25:16.463Z,24.88
2017-04-04T02:26:15.470Z,26.30
2017-04-04T02:27:14.492Z,28.48
2017-04-04T02:28:13.075Z,28.78
2017-04-04T02:29:12.423Z,26.10
2017-04-04T02:30:11.440Z,26.63
2017-04-04T02:31:10.437Z,29.53
2017-04-04T02:32:09.427Z,25.87
2017-04-04T02:33:08.148Z,26.57
2017-04-04T02:34:07.186Z,27.68
2017-04-04T02:35:06.522Z,27.37
2017-04-04T02:36:05.523Z,27.50
2017-04-04T02:37:04.967Z,28.12
2017-04-04T02:38:03.959Z,28.23
2017-04-04T02:39:03.063Z,27.50
2017-04-04T02:40:02.068Z,28.78
2017-04-04T02:41:01.059Z,29.20
2017-04-04T02:42:00.055Z,27.77
2017-04-04T02:42:59.047Z,27.65
2017-04-04T02:43:58.464Z,28.03
2017-04-04T02:44:57.495Z,28.12
2017-04-04T02:45:56.500Z,29.33
2017-04-04T02:46:55.527Z,29.33
2017-04-04T02:47:54.540Z,28.48
2017-04-04T02:48:53.516Z,28.55
2017-04-04T02:49:52.559Z,29.45
2017-04-04T02:50:51.563Z,28.37
2017-04-04T02:51:50.632Z,30.03
2017-04-04T02:52:49.991Z,29.97
2017-04-04T02:53:48.996Z,29.23
2017-04-04T02:54:47.612Z,29.58
2017-04-04T02:55:46.182Z,29.23
2017-04-04T02:56:45.223Z,29.35
2017-04-04T02:57:44.225Z,29.15
2017-04-04T02:58:43.656Z,29.63
2017-04-04T02:59:42.687Z,28.57
2017-04-04T03:00:41.735Z,31.25
2017-04-04T03:01:40.658Z,30.50
2017-04-04T03:02:39.319Z,32.07
2017-04-04T03:03:38.351Z,28.82
2017-04-04T03:04:37.407Z,29.85
2017-04-04T03:05:36.755Z,28.05
2017-04-04T03:06:35.751Z,28.37
2017-04-04T03:07:34.751Z,29.58
2017-04-04T03:08:33.796Z,30.22
2017-04-04T03:09:32.775Z,30.82
2017-04-04T03:10:31.775Z,31.88
2017-04-04T03:11:30.727Z,31.15
2017-04-04T03:12:29.780Z,30.58
2017-04-04T03:13:28.772Z,30.20
2017-04-04T03:14:28.519Z,33.02
2017-04-04T03:15:28.227Z,31.62
2017-04-04T03:16:27.262Z,30.82
2017-04-04T03:17:26.736Z,30.17
2017-04-04T03:18:25.724Z,30.53
2017-04-04T03:19:24.342Z,31.05
2017-04-04T03:20:23.020Z,32.35
2017-04-04T03:21:21.644Z,29.58
2017-04-04T03:22:20.627Z,29.15
2017-04-04T03:23:19.680Z,29.00
2017-04-04T03:24:18.671Z,29.63
2017-04-04T03:25:17.679Z,29.90
2017-04-04T03:26:16.326Z,29.42
2017-04-04T03:27:15.350Z,33.50
2017-04-04T03:28:14.332Z,33.68
2017-04-04T03:29:13.386Z,32.83
2017-04-04T03:30:12.384Z,33.67
2017-04-04T03:31:11.406Z,32.35
2017-04-04T03:32:09.971Z,32.15
2017-04-04T03:33:08.971Z,33.20
2017-04-04T03:34:07.963Z,29.95
2017-04-04T03:35:06.927Z,30.67
2017-04-04T03:36:05.955Z,31.97
2017-04-04T03:37:04.600Z,33.73
2017-04-04T03:38:03.599Z,31.83
2017-04-04T03:39:02.160Z,32.50
2017-04-04T03:40:00.783Z,30.02
2017-04-04T03:40:59.836Z,34.17
2017-04-04T03:41:58.832Z,32.67
2017-04-04T03:42:57.447Z,31.03
2017-04-04T03:43:56.435Z,32.53
2017-04-04T03:44:55.800Z,33.03
2017-04-04T03:45:54.825Z,32.58
2017-04-04T03:46:53.831Z,35.50
2017-04-04T03:47:52.867Z,33.80
2017-04-04T03:48:51.890Z,32.55
2017-04-04T03:49:51.103Z,31.72
2017-04-04T03:50:49.682Z,31.22
2017-04-04T03:51:49.103Z,34.20
2017-04-04T03:52:48.095Z,35.65
2017-04-04T03:53:47.170Z,34.97
2017-04-04T03:54:46.203Z,34.68
2017-04-04T03:55:45.223Z,33.27
2017-04-04T03:56:44.216Z,32.87
2017-04-04T03:57:42.866Z,36.23
2017-04-04T03:58:41.884Z,35.23
2017-04-04T03:59:40.834Z,32.58
2017-04-04T04:00:39.819Z,31.73
2017-04-04T04:01:39.010Z,34.38
2017-04-04T04:02:38.031Z,31.83
2017-04-04T04:03:37.228Z,34.82
2017-04-04T04:04:36.571Z,31.47
2017-04-04T04:05:35.543Z,32.40
2017-04-04T04:06:34.500Z,33.58
2017-04-04T04:07:33.509Z,33.33
2017-04-04T04:08:32.484Z,32.92
2017-04-04T04:09:31.528Z,34.17
2017-04-04T04:10:30.520Z,33.63
2017-04-04T04:11:29.471Z,33.65
2017-04-04T04:12:28.896Z,34.03
2017-04-04T04:13:27.864Z,34.28
2017-04-04T04:14:26.450Z,33.87
2017-04-04T04:15:25.472Z,35.15
2017-04-04T04:16:24.418Z,32.87
2017-04-04T04:17:23.284Z,34.97
2017-04-04T04:18:22.318Z,33.30
2017-04-04T04:19:21.326Z,32.57
2017-04-04T04:20:20.311Z,33.80
2017-04-04T04:21:19.332Z,32.18
2017-04-04T04:22:18.313Z,29.40
2017-04-04T04:23:17.743Z,32.47
2017-04-04T04:24:16.775Z,33.70
2017-04-04T04:25:15.793Z,34.43
2017-04-04T04:26:15.065Z,35.90
2017-04-04T04:27:13.684Z,33.10
2017-04-04T04:28:13.396Z,34.17
2017-04-04T04:29:12.426Z,33.27
2017-04-04T04:30:11.447Z,33.68
2017-04-04T04:31:10.437Z,37.68
2017-04-04T04:32:09.455Z,35.95
2017-04-04T04:33:08.497Z,36.08
2017-04-04T04:34:07.803Z,35.32
2017-04-04T04:35:06.839Z,33.55
2017-04-04T04:36:05.839Z,35.45
2017-04-04T04:37:05.231Z,35.38
2017-04-04T04:38:03.855Z,35.83
2017-04-04T04:39:02.902Z,36.78
2017-04-04T04:40:01.505Z,37.95
2017-04-04T04:41:00.498Z,34.70
2017-04-04T04:41:59.046Z,37.22
2017-04-04T04:42:58.079Z,34.73
2017-04-04T04:43:57.088Z,35.07
2017-04-04T04:44:55.667Z,36.57
2017-04-04T04:45:54.651Z,39.12
2017-04-04T04:46:53.627Z,38.57
2017-04-04T04:47:52.603Z,37.73
2017-04-04T04:48:51.918Z,35.42
2017-04-04T04:49:50.916Z,36.38
2017-04-04T04:50:49.909Z,36.48
2017-04-04T04:51:48.516Z,37.18
2017-04-04T04:52:47.471Z,37.52
2017-04-04T04:53:46.479Z,37.87
2017-04-04T04:54:45.479Z,36.90
2017-04-04T04:55:44.455Z,38.82
2017-04-04T04:56:43.455Z,37.50
2017-04-04T04:57:42.816Z,38.75
2017-04-04T04:58:41.836Z,36.03
2017-04-04T04:59:40.415Z,38.60
2017-04-04T05:00:39.482Z,37.98
2017-04-04T05:01:38.058Z,38.92
2017-04-04T05:02:37.421Z,40.00
2017-04-04T05:03:36.456Z,35.22
2017-04-04T05:04:35.468Z,37.17
2017-04-04T05:05:34.460Z,39.62
2017-04-04T05:06:33.087Z,40.47
2017-04-04T05:07:32.441Z,36.83
2017-04-04T05:08:31.476Z,37.20
2017-04-04T05:09:30.032Z,38.23
2017-04-04T05:10:29.052Z,37.55
2017-04-04T05:11:27.627Z,37.52
2017-04-04T05:12:26.739Z,40.90
2017-04-04T05:13:25.724Z,36.50
2017-04-04T05:14:24.779Z,37.13
2017-04-04T05:15:23.745Z,37.37
2017-04-04T05:16:22.747Z,40.67
2017-04-04T05:17:22.515Z,37.72
2017-04-04T05:18:21.891Z,37.40
2017-04-04T05:19:20.880Z,36.87
2017-04-04T05:20:19.875Z,36.75
2017-04-04T05:21:19.242Z,38.35
2017-04-04T05:22:18.296Z,39.88
2017-04-04T05:23:17.333Z,37.55
2017-04-04T05:24:16.322Z,36.35
2017-04-04T05:25:15.371Z,37.72
2017-04-04T05:26:14.725Z,37.37
2017-04-04T05:27:13.751Z,37.18
2017-04-04T05:28:12.755Z,39.27
2017-04-04T05:29:11.756Z,36.98
2017-04-04T05:30:11.135Z,37.63
2017-04-04T05:31:09.892Z,36.75
2017-04-04T05:32:08.957Z,39.13
2017-04-04T05:33:08.040Z,38.45
2017-04-04T05:34:06.621Z,37.35
2017-04-04T05:35:05.773Z,40.70
2017-04-04T05:36:05.190Z,39.07
2017-04-04T05:37:04.188Z,37.50
2017-04-04T05:38:03.181Z,36.67
2017-04-04T05:39:02.156Z,37.65
2017-04-04T05:40:01.164Z,37.67
2017-04-04T05:41:00.164Z,39.85
2017-04-04T05:41:59.563Z,39.53
2017-04-04T05:42:59.003Z,40.15
2017-04-04T05:43:57.956Z,37.98
2017-04-04T05:44:56.966Z,37.92
2017-04-04T05:45:55.919Z,37.75
2017-04-04T05:46:54.898Z,38.17
2017-04-04T05:47:53.535Z,36.80
2017-04-04T05:48:52.507Z,36.88
2017-04-04T05:49:51.458Z,36.70
2017-04-04T05:50:50.028Z,37.97
2017-04-04T05:51:49.156Z,36.10
2017-04-04T05:52:48.130Z,37.63
2017-04-04T05:53:47.075Z,37.90
2017-04-04T05:54:46.135Z,38.23
2017-04-04T05:55:45.097Z,36.37
2017-04-04T05:56:44.139Z,40.00
2017-04-04T05:57:43.168Z,37.50
2017-04-04T05:58:42.183Z,36.22
2017-04-04T05:59:41.338Z,37.85
2017-04-04T06:00:40.320Z,38.82
2017-04-04T06:01:39.269Z,38.87
2017-04-04T06:02:38.070Z,39.03
2017-04-04T06:03:37.039Z,39.37
2017-04-04T06:04:36.417Z,38.60
2017-04-04T06:05:35.631Z,39.92
2017-04-04T06:06:34.635Z,39.27
2017-04-04T06:07:33.594Z,37.30
2017-04-04T06:08:32.602Z,38.52
2017-04-04T06:09:31.631Z,37.97
2017-04-04T06:10:30.260Z,40.05
2017-04-04T06:11:29.315Z,40.43
2017-04-04T06:12:29.093Z,40.33
2017-04-04T06:13:28.046Z,39.85
2017-04-04T06:14:27.098Z,39.18
2017-04-04T06:15:26.216Z,37.60
2017-04-04T06:16:25.207Z,39.10
2017-04-04T06:17:24.548Z,39.02
2017-04-04T06:18:23.170Z,36.28
2017-04-04T06:19:22.550Z,38.90
2017-04-04T06:20:21.147Z,37.98
2017-04-04T06:21:20.527Z,38.25
2017-04-04T06:22:19.560Z,39.30
2017-04-04T06:23:18.575Z,39.37
2017-04-04T06:24:17.518Z,38.00
2017-04-04T06:25:16.568Z,37.97
2017-04-04T06:26:15.552Z,36.77
2017-04-04T06:27:14.579Z,37.33
2017-04-04T06:28:14.299Z,37.83
2017-04-04T06:29:13.727Z,37.40
2017-04-04T06:30:13.107Z,38.47
2017-04-04T06:31:11.723Z,37.73
2017-04-04T06:32:10.704Z,39.33
2017-04-04T06:33:09.668Z,35.95
2017-04-04T06:34:08.296Z,39.05
2017-04-04T06:35:07.344Z,38.53
2017-04-04T06:36:06.332Z,40.18
2017-04-04T06:37:05.312Z,38.10
2017-04-04T06:38:04.315Z,38.02
2017-04-04T06:39:04.446Z,37.85
2017-04-04T06:40:03.498Z,37.35
2017-04-04T06:41:02.470Z,39.18
2017-04-04T06:42:01.456Z,39.82
2017-04-04T06:43:00.411Z,39.18
2017-04-04T06:43:59.333Z,39.18
2017-04-04T06:44:58.337Z,36.67
2017-04-04T06:45:57.288Z,41.07
2017-04-04T06:46:56.238Z,39.00
2017-04-04T06:47:55.222Z,39.95
2017-04-04T06:48:54.251Z,38.60
2017-04-04T06:49:53.215Z,38.40
2017-04-04T06:50:52.167Z,38.05
2017-04-04T06:51:51.135Z,39.52
2017-04-04T06:52:50.176Z,39.35
2017-04-04T06:53:49.228Z,40.22
2017-04-04T06:54:48.182Z,39.15
2017-04-04T06:55:47.151Z,38.22
2017-04-04T06:56:45.749Z,39.02
2017-04-04T06:57:44.764Z,36.87
2017-04-04T06:58:44.145Z,38.55
2017-04-04T06:59:43.180Z,36.50
2017-04-04T07:00:42.211Z,37.35
2017-04-04T07:01:41.235Z,39.57
2017-04-04T07:02:45.760Z,38.48
2017-04-04T07:03:44.482Z,39.52
2017-04-04T07:04:43.079Z,41.97
2017-04-04T07:05:42.471Z,41.60
2017-04-04T07:06:42.115Z,39.08
2017-04-04T07:07:42.124Z,40.07
2017-04-04T07:08:41.079Z,38.83
2017-04-04T07:09:40.071Z,39.20
2017-04-04T07:10:39.246Z,39.08
2017-04-04T07:11:38.330Z,39.82
2017-04-04T07:12:37.375Z,42.32
2017-04-04T07:13:35.913Z,41.13
2017-04-04T07:14:34.944Z,37.50
2017-04-04T07:15:33.962Z,39.83
2017-04-04T07:16:33.183Z,40.15
2017-04-04T07:17:32.408Z,41.03
2017-04-04T07:18:31.424Z,40.15
2017-04-04T07:19:30.745Z,39.05
2017-04-04T07:20:29.747Z,38.82
2017-04-04T07:21:28.791Z,39.57
2017-04-04T07:22:27.811Z,39.58
2017-04-04T07:23:26.932Z,42.25
2017-04-04T07:24:25.939Z,39.05
2017-04-04T07:25:24.480Z,39.62
2017-04-04T07:26:23.551Z,41.28
2017-04-04T07:27:22.548Z,39.07
2017-04-04T07:28:21.579Z,42.57
2017-04-04T07:29:20.957Z,40.25
2017-04-04T07:30:19.931Z,41.05
2017-04-04T07:31:18.907Z,40.67
2017-04-04T07:32:18.279Z,40.25
2017-04-04T07:33:17.235Z,38.43
2017-04-04T07:34:16.251Z,39.85
2017-04-04T07:35:14.928Z,40.62
2017-04-04T07:36:13.912Z,37.87
2017-04-04T07:37:12.979Z,42.30
2017-04-04T07:38:11.933Z,39.73
2017-04-04T07:39:10.951Z,43.78
2017-04-04T07:40:09.931Z,37.08
2017-04-04T07:41:08.970Z,40.53
2017-04-04T07:42:07.981Z,39.48
2017-04-04T07:43:07.016Z,39.75
2017-04-04T07:44:06.107Z,39.88
2017-04-04T07:45:05.101Z,40.62
2017-04-04T07:46:04.182Z,41.65
2017-04-04T07:47:03.236Z,42.72
2017-04-04T07:48:01.782Z,38.37
2017-04-04T07:49:01.172Z,42.50
2017-04-04T07:50:00.322Z,38.77
2017-04-04T07:50:59.375Z,39.55
2017-04-04T07:51:58.023Z,38.15
2017-04-04T07:52:56.604Z,36.73
2017-04-04T07:53:55.957Z,39.80
2017-04-04T07:54:55.011Z,39.72
2017-04-04T07:55:54.020Z,40.03
2017-04-04T07:56:52.656Z,40.10
2017-04-04T07:57:51.664Z,39.75
2017-04-04T07:58:50.648Z,39.62
2017-04-04T07:59:50.027Z,42.72
2017-04-04T08:00:49.050Z,39.42
2017-04-04T08:01:48.032Z,39.35
2017-04-04T08:02:46.603Z,39.20
2017-04-04T08:03:45.599Z,39.07
2017-04-04T08:04:44.624Z,39.50
2017-04-04T08:05:43.744Z,40.23
2017-04-04T08:06:42.770Z,39.70
2017-04-04T08:07:41.839Z,40.35
2017-04-04T08:08:40.798Z,40.58
2017-04-04T08:09:39.809Z,40.77
2017-04-04T08:10:38.875Z,37.60
2017-04-04T08:11:37.496Z,37.68
2017-04-04T08:12:36.475Z,38.35
2017-04-04T08:13:35.499Z,40.00
2017-04-04T08:14:34.523Z,38.97
2017-04-04T08:15:33.525Z,38.88
2017-04-04T08:16:32.560Z,40.27
2017-04-04T08:17:31.528Z,40.00
2017-04-04T08:18:30.532Z,37.78
2017-04-04T08:19:29.504Z,39.17
2017-04-04T08:20:28.539Z,38.25
2017-04-04T08:21:27.523Z,39.62
2017-04-04T08:22:26.536Z,37.55
2017-04-04T08:23:25.516Z,39.00
2017-04-04T08:24:24.600Z,39.10
2017-04-04T08:25:23.595Z,37.53
2017-04-04T08:26:22.224Z,36.23
2017-04-04T08:27:21.339Z,36.77
2017-04-04T08:28:20.343Z,35.70
2017-04-04T08:29:19.383Z,37.43
2017-04-04T08:30:18.531Z,39.62
2017-04-04T08:31:17.507Z,36.25
2017-04-04T08:32:16.540Z,37.20
2017-04-04T08:33:15.518Z,37.75
2017-04-04T08:34:14.445Z,37.90
2017-04-04T08:35:13.541Z,35.67
2017-04-04T08:36:12.551Z,37.82
2017-04-04T08:37:11.566Z,36.48
2017-04-04T08:38:10.631Z,35.38
2017-04-04T08:39:09.594Z,36.97
2017-04-04T08:40:08.652Z,35.57
2017-04-04T08:41:07.565Z,36.95
2017-04-04T08:42:06.587Z,37.93
2017-04-04T08:43:05.595Z,37.52
2017-04-04T08:44:04.231Z,36.03
2017-04-04T08:45:02.837Z,37.82
2017-04-04T08:46:01.821Z,38.03
2017-04-04T08:47:00.752Z,37.38
2017-04-04T08:47:59.764Z,36.85
2017-04-04T08:48:58.742Z,37.85
2017-04-04T08:49:57.760Z,36.35
2017-04-04T08:50:56.684Z,38.05
2017-04-04T08:51:55.684Z,37.27
2017-04-04T08:52:54.283Z,36.73
2017-04-04T08:53:53.283Z,37.00
2017-04-04T08:54:52.270Z,36.73
2017-04-04T08:55:51.260Z,37.33
2017-04-04T08:56:49.854Z,37.50
2017-04-04T08:57:48.821Z,35.22
2017-04-04T08:58:48.163Z,34.03
2017-04-04T08:59:47.191Z,35.28
2017-04-04T09:00:46.163Z,37.65
2017-04-04T09:01:45.229Z,34.58
2017-04-04T09:02:44.201Z,34.33
2017-04-04T09:03:42.786Z,36.68
2017-04-04T09:04:41.766Z,36.95
2017-04-04T09:05:40.747Z,38.70
2017-04-04T09:06:39.716Z,37.32
2017-04-04T09:07:38.687Z,36.72
2017-04-04T09:08:37.819Z,35.73
2017-04-04T09:09:36.382Z,39.28
2017-04-04T09:10:35.351Z,38.70
2017-04-04T09:11:34.410Z,36.68
2017-04-04T09:12:33.415Z,36.17
2017-04-04T09:13:32.399Z,38.13
2017-04-04T09:14:31.399Z,38.58
2017-04-04T09:15:30.387Z,36.85
2017-04-04T09:16:29.360Z,35.77
2017-04-04T09:17:28.282Z,38.02
2017-04-04T09:18:27.312Z,35.57
2017-04-04T09:19:26.298Z,35.32
2017-04-04T09:20:25.331Z,37.52
2017-04-04T09:21:23.982Z,38.62
2017-04-04T09:22:23.017Z,39.43
2017-04-04T09:23:21.979Z,37.33
2017-04-04T09:24:20.976Z,36.12
2017-04-04T09:25:19.541Z,36.97
2017-04-04T09:26:18.555Z,35.90
2017-04-04T09:27:17.551Z,35.70
2017-04-04T09:28:16.492Z,35.25
2017-04-04T09:29:15.536Z,35.77
2017-04-04T09:30:14.501Z,36.67
2017-04-04T09:31:13.555Z,34.20
2017-04-04T09:32:12.127Z,36.30
2017-04-04T09:33:11.196Z,34.78
2017-04-04T09:34:10.151Z,35.42
2017-04-04T09:35:09.189Z,38.47
2017-04-04T09:36:07.744Z,36.13
2017-04-04T09:37:06.845Z,34.45
2017-04-04T09:38:05.874Z,37.38
2017-04-04T09:39:05.643Z,36.45
2017-04-04T09:40:04.680Z,34.58
2017-04-04T09:41:03.656Z,37.27
2017-04-04T09:42:02.615Z,34.95
2017-04-04T09:43:01.624Z,37.28
2017-04-04T09:44:01.344Z,36.52
2017-04-04T09:44:59.907Z,34.65
2017-04-04T09:45:58.929Z,35.22
2017-04-04T09:46:57.921Z,37.07
2017-04-04T09:47:56.943Z,35.60
2017-04-04T09:48:56.035Z,34.10
2017-04-04T09:49:55.027Z,36.70
2017-04-04T09:50:54.966Z,35.52
2017-04-04T09:51:54.310Z,33.97
2017-04-04T09:52:53.287Z,34.88
2017-04-04T09:53:52.246Z,35.72
2017-04-04T09:54:51.760Z,33.75
2017-04-04T09:55:50.703Z,34.18
2017-04-04T09:56:49.655Z,37.23
2017-04-04T09:57:48.644Z,36.98
2017-04-04T09:58:47.224Z,36.80
2017-04-04T09:59:46.220Z,32.48
2017-04-04T10:00:45.206Z,33.40
2017-04-04T10:01:44.226Z,38.68
2017-04-04T10:02:43.232Z,33.72
2017-04-04T10:03:42.213Z,35.55
2017-04-04T10:04:41.182Z,33.90
2017-04-04T10:05:40.174Z,33.05
2017-04-04T10:06:39.172Z,32.40
2017-04-04T10:07:38.201Z,34.93
2017-04-04T10:08:37.247Z,32.68
2017-04-04T10:09:36.228Z,34.45
2017-04-04T10:10:35.312Z,35.68
2017-04-04T10:11:34.324Z,33.03
2017-04-04T10:12:33.339Z,32.43
2017-04-04T10:13:32.325Z,32.58
2017-04-04T10:14:31.363Z,33.23
2017-04-04T10:15:30.382Z,33.72
2017-04-04T10:16:29.742Z,33.38
2017-04-04T10:17:28.373Z,33.03
2017-04-04T10:18:27.500Z,30.95
2017-04-04T10:19:26.402Z,31.35
2017-04-04T10:20:25.422Z,31.75
2017-04-04T10:21:24.427Z,29.30
2017-04-04T10:22:23.425Z,32.00
2017-04-04T10:23:22.383Z,32.97
2017-04-04T10:24:21.902Z,34.27
2017-04-04T10:25:20.903Z,29.97
2017-04-04T10:26:20.228Z,32.73
2017-04-04T10:27:19.237Z,32.47
2017-04-04T10:28:18.374Z,30.92
2017-04-04T10:29:17.018Z,30.58
2017-04-04T10:30:16.276Z,28.73
2017-04-04T10:31:15.250Z,30.92
2017-04-04T10:32:13.835Z,28.78
2017-04-04T10:33:12.795Z,31.05
2017-04-04T10:34:11.851Z,31.53
2017-04-04T10:35:10.944Z,31.00
2017-04-04T10:36:09.934Z,30.35
2017-04-04T10:37:08.944Z,33.65
2017-04-04T10:38:07.940Z,31.92
2017-04-04T10:39:07.263Z,30.27
2017-04-04T10:40:06.231Z,32.33
2017-04-04T10:41:05.655Z,29.53
2017-04-04T10:42:04.647Z,33.05
2017-04-04T10:43:03.998Z,30.65
2017-04-04T10:44:03.341Z,31.00
2017-04-04T10:45:02.388Z,30.83
2017-04-04T10:46:01.391Z,32.87
2017-04-04T10:47:00.780Z,31.85
2017-04-04T10:47:59.816Z,29.78
2017-04-04T10:48:58.491Z,31.47
2017-04-04T10:49:57.451Z,31.25
2017-04-04T10:50:56.443Z,28.32
2017-04-04T10:51:55.447Z,27.85
2017-04-04T10:52:54.433Z,28.20
2017-04-04T10:53:53.458Z,27.17
2017-04-04T10:54:52.456Z,27.15
2017-04-04T10:55:51.839Z,28.05
2017-04-04T10:56:51.193Z,25.63
2017-04-04T10:57:49.815Z,28.03
2017-04-04T10:58:49.162Z,27.70
2017-04-04T10:59:48.151Z,28.22
2017-04-04T11:00:46.715Z,28.25
2017-04-04T11:01:45.735Z,27.95
2017-04-04T11:02:44.750Z,27.15
2017-04-04T11:03:43.728Z,26.28
2017-04-04T11:04:42.703Z,26.98
2017-04-04T11:05:41.250Z,28.88
2017-04-04T11:06:40.343Z,28.82
2017-04-04T11:07:39.286Z,29.00
2017-04-04T11:08:38.224Z,30.75
2017-04-04T11:09:37.258Z,30.03
2017-04-04T11:10:36.255Z,29.45
2017-04-04T11:11:35.178Z,30.30
2017-04-04T11:12:33.793Z,30.35
2017-04-04T11:13:32.790Z,30.32
2017-04-04T11:14:31.773Z,30.08
2017-04-04T11:15:30.763Z,30.93
2017-04-04T11:16:29.803Z,29.88
2017-04-04T11:17:28.812Z,30.20
2017-04-04T11:18:27.899Z,28.47
2017-04-04T11:19:26.922Z,28.48
2017-04-04T11:20:25.914Z,26.70
2017-04-04T11:21:25.289Z,26.75
2017-04-04T11:22:24.296Z,29.43
2017-04-04T11:23:24.031Z,27.47
2017-04-04T11:24:23.049Z,27.75
2017-04-04T11:25:21.998Z,26.82
2017-04-04T11:26:20.942Z,28.48
2017-04-04T11:27:19.954Z,26.30
2017-04-04T11:28:18.964Z,24.12
2017-04-04T11:29:17.932Z,24.67
2017-04-04T11:30:16.923Z,27.07
2017-04-04T11:31:15.490Z,26.03
2017-04-04T11:32:14.507Z,26.35
2017-04-04T11:33:13.495Z,26.00
2017-04-04T11:34:12.619Z,22.10
2017-04-04T11:35:11.643Z,22.85
2017-04-04T11:36:10.271Z,24.62
2017-04-04T11:37:08.883Z,25.57
2017-04-04T11:38:07.519Z,26.60
2017-04-04T11:39:06.545Z,26.93
2017-04-04T11:40:05.224Z,25.28
2017-04-04T11:41:04.216Z,25.77
2017-04-04T11:42:03.245Z,26.05
2017-04-04T11:43:02.622Z,25.48
2017-04-04T11:44:01.599Z,26.60
2017-04-04T11:45:00.551Z,25.05
2017-04-04T11:45:59.534Z,25.48
2017-04-04T11:46:58.510Z,25.87
2017-04-04T11:47:57.071Z,24.88
2017-04-04T11:48:56.056Z,27.10
2017-04-04T11:49:55.083Z,31.42
2017-04-04T11:50:54.074Z,30.47
2017-04-04T11:51:53.187Z,29.87
2017-04-04T11:52:52.296Z,29.75
2017-04-04T11:53:50.949Z,29.98
2017-04-04T11:54:49.542Z,27.75
2017-04-04T11:55:48.544Z,27.45
2017-04-04T11:56:47.490Z,27.38
2017-04-04T11:57:46.591Z,28.90
2017-04-04T11:58:45.495Z,31.37
2017-04-04T11:59:44.135Z,31.80
2017-04-04T12:00:43.130Z,29.02
2017-04-04T12:01:41.687Z,30.93
2017-04-04T12:02:41.128Z,28.83
2017-04-04T12:03:40.120Z,30.25
2017-04-04T12:04:39.124Z,28.38
2017-04-04T12:05:38.087Z,28.57
2017-04-04T12:06:37.196Z,27.98
2017-04-04T12:07:35.888Z,26.67
2017-04-04T12:08:35.186Z,27.43
2017-04-04T12:09:34.187Z,27.18
2017-04-04T12:10:32.718Z,26.90
2017-04-04T12:11:31.307Z,28.25
2017-04-04T12:12:30.649Z,26.77
2017-04-04T12:13:29.223Z,27.65
2017-04-04T12:14:28.203Z,27.02
2017-04-04T12:15:27.203Z,27.73
2017-04-04T12:16:26.308Z,24.80
2017-04-04T12:17:25.331Z,24.30
2017-04-04T12:18:24.491Z,25.40
2017-04-04T12:19:23.500Z,23.48
2017-04-04T12:20:22.543Z,26.88
2017-04-04T12:21:21.655Z,24.87
2017-04-04T12:22:20.956Z,25.15
2017-04-04T12:23:19.983Z,25.52
2017-04-04T12:24:18.984Z,24.93
2017-04-04T12:25:18.011Z,24.93
2017-04-04T12:26:17.020Z,26.62
2017-04-04T12:27:16.047Z,25.42
2017-04-04T12:28:15.057Z,23.65
2017-04-04T12:29:14.403Z,23.38
2017-04-04T12:30:13.369Z,21.08
2017-04-04T12:31:12.328Z,21.35
2017-04-04T12:32:11.347Z,24.45
2017-04-04T12:33:10.348Z,22.55
2017-04-04T12:34:09.303Z,22.45
2017-04-04T12:35:08.327Z,24.12
2017-04-04T12:36:07.380Z,23.80
2017-04-04T12:37:06.385Z,25.83
2017-04-04T12:38:05.381Z,24.27
2017-04-04T12:39:05.035Z,25.12
2017-04-04T12:40:04.072Z,26.55